Time;durP1;ratioP1;P1;durP2;ratioP2;P2;SDS_P1;SDS_P2;PMS_P1;PMS_P2;Temp;Humidity;BMP_temperature;BMP_pressure;BME280_temperature;BME280_humidity;BME280_pressure;Samples;Min_cycle;Max_cycle;Signal;HPM_P1;HPM_P2
2024/02/28 00:00:54;;;;;;;2.33;1.55;;;17.90;68.30;;;;;;6192648;23;20614;-84
2024/02/28 00:03:21;;;;;;;1.45;1.35;;;17.80;68.30;;;;;;6193388;23;20488;-86
2024/02/28 00:05:48;;;;;;;2.13;1.40;;;17.80;68.40;;;;;;6220071;23;20212;-86
2024/02/28 00:08:13;;;;;;;2.25;1.30;;;17.80;68.50;;;;;;6195742;23;20157;-86
2024/02/28 00:10:39;;;;;;;1.23;1.13;;;17.80;68.30;;;;;;6220699;23;20248;-88
2024/02/28 00:13:06;;;;;;;1.73;1.50;;;17.80;68.50;;;;;;6225445;22;20295;-87
2024/02/28 00:15:36;;;;;;;1.52;1.42;;;17.80;68.50;;;;;;6278652;22;20560;-87
2024/02/28 00:18:03;;;;;;;1.58;1.33;;;17.80;68.30;;;;;;6225824;22;20208;-87
2024/02/28 00:20:30;;;;;;;1.70;1.40;;;17.80;68.60;;;;;;6225810;22;20156;-89
2024/02/28 00:22:56;;;;;;;1.40;1.30;;;17.70;68.50;;;;;;6225585;22;20480;-88
2024/02/28 00:25:21;;;;;;;1.42;1.33;;;17.70;68.40;;;;;;6199532;22;20152;-85
2024/02/28 00:27:52;;;;;;;1.75;1.48;;;17.80;68.30;;;;;;6250554;22;20137;-86
2024/02/28 00:30:21;;;;;;;2.30;1.50;;;17.80;68.00;;;;;;6174616;22;20524;-86
2024/02/28 00:32:47;;;;;;;2.88;1.60;;;17.80;68.40;;;;;;6225184;22;20576;-85
2024/02/28 00:35:14;;;;;;;2.40;1.67;;;17.80;68.30;;;;;;6200057;22;20170;-86
2024/02/28 00:37:40;;;;;;;1.77;1.25;;;17.80;68.20;;;;;;6200141;22;20152;-89
2024/02/28 00:40:07;;;;;;;1.92;1.30;;;17.80;68.30;;;;;;6225530;22;20555;-86
2024/02/28 00:42:34;;;;;;;1.75;1.50;;;17.80;68.40;;;;;;6225612;22;20544;-88
2024/02/28 00:45:00;;;;;;;2.40;1.60;;;17.70;68.30;;;;;;6199969;22;20199;-85
2024/02/28 00:47:26;;;;;;;1.50;1.40;;;17.80;68.40;;;;;;6200235;22;20484;-85
2024/02/28 00:49:53;;;;;;;1.65;1.40;;;17.80;68.40;;;;;;6200059;22;20642;-85
2024/02/28 00:52:21;;;;;;;1.63;1.30;;;17.80;68.50;;;;;;6199903;22;20176;-86
2024/02/28 00:54:50;;;;;;;1.67;1.50;;;17.80;68.80;;;;;;6198631;22;20159;-87
2024/02/28 00:57:19;;;;;;;2.08;1.50;;;17.70;68.30;;;;;;6173986;22;20152;-86
2024/02/28 00:59:44;;;;;;;1.30;1.20;;;17.70;68.10;;;;;;6224966;22;20147;-86
2024/02/28 01:02:10;;;;;;;1.38;1.27;;;17.70;68.20;;;;;;6200035;22;20153;-87
2024/02/28 01:04:37;;;;;;;1.45;1.25;;;17.70;68.00;;;;;;6200285;22;20227;-87
2024/02/28 01:07:03;;;;;;;3.08;1.55;;;17.70;68.30;;;;;;6277219;22;20137;-86
2024/02/28 01:09:30;;;;;;;4.45;1.60;;;17.70;68.40;;;;;;6224532;22;20206;-86
2024/02/28 01:11:55;;;;;;;1.40;1.30;;;17.70;68.40;;;;;;6249659;22;20191;-85
2024/02/28 01:14:21;;;;;;;1.58;1.30;;;17.70;68.30;;;;;;6224665;22;20179;-87
2024/02/28 01:16:47;;;;;;;1.50;1.30;;;17.70;68.30;;;;;;6199659;22;20172;-86
2024/02/28 01:19:15;;;;;;;1.50;1.40;;;17.70;68.40;;;;;;6199811;22;20177;-86
2024/02/28 01:21:42;;;;;;;2.53;1.60;;;17.70;68.50;;;;;;6224828;22;20153;-88
2024/02/28 01:24:08;;;;;;;1.42;1.20;;;17.70;68.40;;;;;;6199441;22;20149;-87
2024/02/28 01:26:35;;;;;;;1.73;1.30;;;17.70;68.10;;;;;;6199357;22;20206;-86
2024/02/28 01:29:05;;;;;;;1.58;1.48;;;17.70;68.40;;;;;;6148948;22;20229;-87
2024/02/28 01:31:31;;;;;;;1.98;1.50;;;17.70;68.30;;;;;;6173708;22;20184;-87
2024/02/28 01:33:57;;;;;;;1.50;1.25;;;17.80;68.00;;;;;;6199460;22;20156;-85
2024/02/28 01:36:24;;;;;;;3.38;1.40;;;17.70;68.10;;;;;;6224990;22;20136;-87
2024/02/28 01:38:49;;;;;;;1.80;1.60;;;17.60;68.40;;;;;;6224501;22;20148;-86
2024/02/28 01:41:16;;;;;;;3.65;1.38;;;17.60;68.40;;;;;;6225028;22;20157;-87
2024/02/28 01:43:42;;;;;;;1.85;1.40;;;17.60;68.50;;;;;;6224529;22;20152;-86
2024/02/28 01:46:21;;;;;;;2.60;1.63;;;17.70;68.60;;;;;;6224526;22;20149;-87
2024/02/28 01:48:47;;;;;;;2.53;1.50;;;17.60;68.40;;;;;;6200750;22;20530;-87
2024/02/28 01:51:17;;;;;;;1.67;1.38;;;17.60;68.80;;;;;;6249482;22;20164;-86
2024/02/28 01:53:44;;;;;;;2.00;1.40;;;17.60;68.70;;;;;;6248569;22;20210;-88
2024/02/28 01:56:16;;;;;;;1.65;1.30;;;17.60;68.70;;;;;;6249478;22;20494;-87
2024/02/28 01:58:44;;;;;;;3.30;1.70;;;17.60;68.40;;;;;;6174216;22;20175;-86
2024/02/28 02:01:11;;;;;;;1.70;1.60;;;17.60;68.30;;;;;;6224818;22;20172;-86
2024/02/28 02:03:36;;;;;;;2.70;1.58;;;17.60;68.40;;;;;;6224528;22;20149;-87
2024/02/28 02:06:03;;;;;;;1.70;1.60;;;17.60;68.60;;;;;;6224696;22;20156;-88
2024/02/28 02:08:30;;;;;;;1.38;1.27;;;17.60;68.20;;;;;;6276568;22;20168;-86
2024/02/28 02:10:56;;;;;;;2.10;1.58;;;17.60;68.20;;;;;;6223754;22;20183;-86
2024/02/28 02:13:24;;;;;;;2.08;1.60;;;17.60;68.40;;;;;;6225012;22;20143;-88
2024/02/28 02:15:51;;;;;;;1.88;1.52;;;17.60;68.40;;;;;;6199098;22;20153;-88
2024/02/28 02:18:19;;;;;;;1.73;1.50;;;17.60;68.10;;;;;;6224226;22;20223;-87
2024/02/28 02:20:46;;;;;;;1.85;1.50;;;17.60;67.50;;;;;;6249487;22;20137;-85
2024/02/28 02:23:12;;;;;;;2.42;1.63;;;17.70;67.90;;;;;;6224873;22;20156;-88
2024/02/28 02:25:53;;;;;;;2.97;1.55;;;17.60;68.10;;;;;;6199042;22;20152;-86
2024/02/28 02:28:19;;;;;;;2.55;1.52;;;17.60;68.00;;;;;;6199042;22;20156;-86
2024/02/28 02:30:47;;;;;;;2.55;1.50;;;17.60;68.40;;;;;;6198922;22;20608;-87
2024/02/28 02:33:13;;;;;;;1.98;1.70;;;17.60;68.50;;;;;;6224350;22;20607;-86
2024/02/28 02:35:38;;;;;;;1.90;1.70;;;17.60;68.50;;;;;;6249690;22;20133;-86
2024/02/28 02:38:06;;;;;;;1.63;1.52;;;17.60;68.70;;;;;;6199031;22;20227;-86
2024/02/28 02:40:34;;;;;;;2.05;1.85;;;17.60;68.50;;;;;;6224662;22;20136;-86
2024/02/28 02:43:00;;;;;;;1.80;1.52;;;17.50;68.70;;;;;;6249804;22;20126;-86
2024/02/28 02:45:26;;;;;;;2.75;1.70;;;17.50;68.50;;;;;;6199243;22;20155;-85
2024/02/28 02:47:52;;;;;;;1.80;1.60;;;17.60;68.40;;;;;;6224371;22;20183;-87
2024/02/28 02:50:18;;;;;;;1.92;1.50;;;17.50;68.40;;;;;;6249463;22;20136;-86
2024/02/28 02:52:44;;;;;;;2.90;1.80;;;17.60;68.20;;;;;;6223639;22;20482;-87
2024/02/28 02:55:10;;;;;;;1.90;1.50;;;17.60;68.20;;;;;;6223863;22;20153;-86
2024/02/28 02:57:36;;;;;;;1.80;1.60;;;17.50;68.70;;;;;;6223792;22;20236;-86
2024/02/28 03:00:04;;;;;;;1.63;1.50;;;17.50;68.40;;;;;;6223743;22;20186;-86
2024/02/28 03:02:30;;;;;;;1.60;1.50;;;17.60;68.70;;;;;;6198848;22;20207;-86
2024/02/28 03:04:56;;;;;;;1.85;1.52;;;17.50;68.50;;;;;;6223830;22;20225;-86
2024/02/28 03:07:22;;;;;;;2.50;1.80;;;17.50;68.70;;;;;;6224103;22;20153;-86
2024/02/28 03:09:49;;;;;;;1.88;1.52;;;17.50;68.60;;;;;;6223825;22;20137;-86
2024/02/28 03:12:18;;;;;;;1.83;1.52;;;17.50;68.00;;;;;;6223417;22;20284;-86
2024/02/28 03:14:43;;;;;;;1.40;1.27;;;17.50;68.40;;;;;;6173457;22;20191;-87
2024/02/28 03:17:09;;;;;;;1.67;1.58;;;17.50;68.80;;;;;;6223855;22;20528;-87
2024/02/28 03:19:35;;;;;;;2.08;1.75;;;17.50;68.50;;;;;;6198708;22;20580;-86
2024/02/28 03:22:03;;;;;;;3.05;1.80;;;17.50;68.90;;;;;;6224103;22;20153;-85
2024/02/28 03:24:29;;;;;;;2.55;1.65;;;17.50;68.50;;;;;;6198735;22;20667;-86
2024/02/28 03:26:58;;;;;;;1.98;1.67;;;17.50;68.50;;;;;;6198948;22;20156;-87
2024/02/28 03:29:28;;;;;;;2.17;1.52;;;17.50;68.80;;;;;;6172513;22;20160;-86
2024/02/28 03:31:57;;;;;;;1.83;1.50;;;17.50;68.60;;;;;;6148344;22;20685;-87
2024/02/28 03:34:23;;;;;;;1.50;1.38;;;17.50;68.70;;;;;;6197723;22;20160;-86
2024/02/28 03:36:54;;;;;;;2.00;1.70;;;17.40;68.90;;;;;;6224001;22;20653;-85
2024/02/28 03:39:19;;;;;;;2.17;1.83;;;17.40;68.80;;;;;;6172721;22;20152;-87
2024/02/28 03:41:51;;;;;;;1.95;1.50;;;17.40;69.10;;;;;;6251201;22;20162;-87
2024/02/28 03:44:18;;;;;;;1.77;1.50;;;17.40;69.00;;;;;;6149814;22;20164;-88
2024/02/28 03:46:44;;;;;;;1.73;1.60;;;17.40;69.20;;;;;;6200579;22;20235;-88
2024/02/28 03:49:13;;;;;;;2.00;1.52;;;17.40;69.10;;;;;;6250970;22;20161;-87
2024/02/28 03:51:41;;;;;;;2.58;1.50;;;17.40;68.50;;;;;;6174684;22;20511;-86
2024/02/28 03:54:07;;;;;;;2.17;1.50;;;17.30;69.00;;;;;;6200013;22;20160;-86
2024/02/28 03:56:35;;;;;;;2.15;1.60;;;17.40;69.10;;;;;;6199987;22;20140;-86
2024/02/28 03:59:01;;;;;;;2.28;1.85;;;17.40;69.00;;;;;;6226222;22;20129;-86
2024/02/28 04:01:27;;;;;;;2.00;1.80;;;17.40;68.70;;;;;;6225494;22;20556;-88
2024/02/28 04:03:54;;;;;;;1.70;1.48;;;17.30;68.80;;;;;;6200255;22;20165;-86
2024/02/28 04:06:22;;;;;;;1.70;1.50;;;17.40;69.10;;;;;;6225426;22;20133;-87
2024/02/28 04:08:50;;;;;;;1.90;1.52;;;17.40;68.90;;;;;;6174704;22;20206;-86
2024/02/28 04:11:18;;;;;;;1.83;1.58;;;17.40;69.00;;;;;;6174152;22;20226;-85
2024/02/28 04:13:44;;;;;;;2.28;1.67;;;17.40;69.90;;;;;;6199737;22;20188;-85
2024/02/28 04:16:10;;;;;;;1.85;1.60;;;17.40;69.00;;;;;;6250778;22;20129;-87
2024/02/28 04:18:35;;;;;;;2.10;1.58;;;17.30;68.70;;;;;;6200518;22;20176;-87
2024/02/28 04:21:01;;;;;;;1.70;1.50;;;17.40;68.80;;;;;;6225403;22;20569;-85
2024/02/28 04:23:29;;;;;;;1.83;1.60;;;17.40;68.90;;;;;;6200139;22;20144;-85
2024/02/28 04:25:54;;;;;;;1.88;1.60;;;17.40;68.70;;;;;;6174584;22;20161;-86
2024/02/28 04:28:21;;;;;;;2.00;1.50;;;17.40;69.00;;;;;;6200229;22;20156;-85
2024/02/28 04:30:47;;;;;;;2.13;1.52;;;17.40;68.60;;;;;;6149612;22;20172;-86
2024/02/28 04:33:13;;;;;;;2.30;1.70;;;17.40;68.70;;;;;;6225124;22;20191;-86
2024/02/28 04:35:38;;;;;;;2.00;1.63;;;17.30;69.00;;;;;;6224938;22;20603;-85
2024/02/28 04:38:04;;;;;;;1.65;1.55;;;17.30;68.90;;;;;;6224719;22;20568;-85
2024/02/28 04:40:30;;;;;;;1.50;1.40;;;17.30;69.00;;;;;;6200229;22;20573;-88
2024/02/28 04:42:56;;;;;;;1.75;1.45;;;17.30;68.90;;;;;;6224280;22;20144;-86
2024/02/28 04:45:22;;;;;;;1.70;1.60;;;17.30;68.90;;;;;;6224732;22;20564;-86
2024/02/28 04:47:51;;;;;;;1.70;1.52;;;17.30;68.90;;;;;;6224940;22;20145;-87
2024/02/28 04:50:17;;;;;;;2.00;1.63;;;17.30;68.70;;;;;;6200914;22;20149;-87
2024/02/28 04:52:48;;;;;;;1.73;1.63;;;17.30;68.90;;;;;;6198932;22;20184;-86
2024/02/28 04:55:18;;;;;;;1.73;1.42;;;17.30;68.70;;;;;;6225387;22;20137;-87
2024/02/28 04:57:44;;;;;;;2.33;2.00;;;17.30;69.10;;;;;;6174244;22;20152;-87
2024/02/28 05:00:11;;;;;;;2.55;1.55;;;17.30;68.90;;;;;;6199921;22;20454;-85
2024/02/28 05:02:41;;;;;;;2.53;1.80;;;17.30;69.00;;;;;;6250403;22;20589;-86
2024/02/28 05:05:07;;;;;;;1.83;1.70;;;17.30;69.00;;;;;;6174672;22;20148;-88
2024/02/28 05:07:33;;;;;;;1.65;1.55;;;17.30;69.00;;;;;;6250626;22;20138;-86
2024/02/28 05:10:00;;;;;;;2.10;1.77;;;17.30;68.90;;;;;;6225056;22;20651;-86
2024/02/28 05:12:26;;;;;;;2.05;1.70;;;17.30;68.90;;;;;;6178090;23;20224;-87
2024/02/28 05:14:53;;;;;;;1.95;1.73;;;17.30;68.80;;;;;;6193181;23;20149;-86
2024/02/28 05:17:19;;;;;;;2.58;1.55;;;17.30;69.20;;;;;;6169319;23;20180;-88
2024/02/28 05:19:45;;;;;;;2.05;1.70;;;17.30;69.40;;;;;;6194891;23;20165;-86
2024/02/28 05:22:13;;;;;;;2.10;1.90;;;17.20;68.90;;;;;;6169775;23;20150;-87
2024/02/28 05:24:43;;;;;;;1.98;1.48;;;17.30;69.00;;;;;;6169134;23;20153;-88
2024/02/28 05:27:10;;;;;;;1.83;1.60;;;17.30;68.90;;;;;;6169780;23;20153;-86
2024/02/28 05:29:36;;;;;;;1.80;1.60;;;17.30;69.00;;;;;;6194323;23;20169;-88
2024/02/28 05:32:04;;;;;;;1.92;1.65;;;17.30;69.00;;;;;;6170604;23;20212;-89
2024/02/28 05:34:34;;;;;;;1.90;1.67;;;17.30;69.20;;;;;;6194131;23;20565;-87
2024/02/28 05:37:01;;;;;;;2.13;1.70;;;17.30;69.10;;;;;;6193478;23;20176;-87
2024/02/28 05:39:29;;;;;;;2.00;1.55;;;17.30;69.00;;;;;;6168493;23;20153;-87
2024/02/28 05:41:56;;;;;;;1.67;1.58;;;17.30;69.00;;;;;;6193318;23;20191;-87
2024/02/28 05:44:24;;;;;;;2.22;1.75;;;17.30;69.00;;;;;;6168925;23;20468;-85
2024/02/28 05:46:51;;;;;;;2.17;1.80;;;17.30;69.20;;;;;;6169286;23;20156;-86
2024/02/28 05:49:17;;;;;;;1.65;1.50;;;17.20;68.80;;;;;;6194274;23;20141;-86
2024/02/28 05:51:42;;;;;;;2.22;1.60;;;17.20;69.00;;;;;;6193964;23;20170;-88
2024/02/28 05:54:10;;;;;;;1.85;1.65;;;17.20;69.00;;;;;;6168658;23;20631;-87
2024/02/28 05:56:36;;;;;;;2.45;1.92;;;17.20;68.90;;;;;;6194196;23;20164;-87
2024/02/28 05:59:02;;;;;;;3.00;1.75;;;17.30;69.10;;;;;;6194709;23;20460;-86
2024/02/28 06:01:29;;;;;;;1.85;1.63;;;17.30;68.90;;;;;;6194486;23;20541;-86
2024/02/28 06:03:56;;;;;;;2.30;1.52;;;17.20;69.00;;;;;;6219540;23;20137;-86
2024/02/28 06:06:23;;;;;;;2.00;1.73;;;17.20;68.90;;;;;;6169412;23;20196;-88
2024/02/28 06:08:50;;;;;;;2.20;1.70;;;17.30;69.10;;;;;;6170289;23;20146;-87
2024/02/28 06:11:16;;;;;;;2.10;1.90;;;17.20;68.90;;;;;;6225498;22;20254;-85
2024/02/28 06:13:43;;;;;;;1.90;1.70;;;17.20;69.10;;;;;;6199427;22;20492;-88
2024/02/28 06:16:18;;;;;;;2.22;1.65;;;17.30;68.90;;;;;;6223870;22;20160;-87
2024/02/28 06:18:47;;;;;;;1.98;1.73;;;17.20;68.90;;;;;;6199963;22;20487;-86
2024/02/28 06:21:14;;;;;;;2.33;1.90;;;17.20;68.70;;;;;;6173315;22;20156;-88
2024/02/28 06:23:39;;;;;;;2.17;1.65;;;17.20;68.90;;;;;;6224468;22;20148;-87
2024/02/28 06:26:05;;;;;;;1.80;1.70;;;17.20;68.90;;;;;;6249385;22;20136;-88
2024/02/28 06:28:32;;;;;;;1.60;1.50;;;17.20;68.70;;;;;;6224256;22;20208;-88
2024/02/28 06:30:58;;;;;;;1.63;1.50;;;17.30;68.90;;;;;;6249206;22;20180;-87
2024/02/28 06:33:24;;;;;;;1.73;1.50;;;17.20;68.90;;;;;;6199053;22;20457;-86
2024/02/28 06:35:49;;;;;;;1.88;1.70;;;17.30;68.80;;;;;;6224908;22;20135;-88
2024/02/28 06:38:16;;;;;;;2.72;1.83;;;17.20;68.80;;;;;;6224393;22;20133;-86
2024/02/28 06:40:43;;;;;;;2.22;1.90;;;17.20;68.60;;;;;;6200051;22;20151;-86
2024/02/28 06:43:11;;;;;;;1.77;1.60;;;17.20;68.10;;;;;;6249169;22;20136;-86
2024/02/28 06:45:36;;;;;;;2.00;1.55;;;17.20;68.70;;;;;;6198666;22;20235;-87
2024/02/28 06:48:03;;;;;;;1.67;1.58;;;17.20;68.70;;;;;;6198821;22;20176;-86
2024/02/28 06:50:29;;;;;;;1.90;1.70;;;17.20;68.60;;;;;;6277294;22;20133;-86
2024/02/28 06:52:58;;;;;;;1.50;1.40;;;17.30;68.60;;;;;;6223700;22;20156;-88
2024/02/28 06:55:24;;;;;;;2.60;1.90;;;17.20;68.90;;;;;;6173621;22;20155;-87
2024/02/28 06:57:54;;;;;;;1.63;1.50;;;17.30;68.90;;;;;;6224452;22;20136;-86
2024/02/28 07:00:22;;;;;;;2.28;2.00;;;17.20;68.10;;;;;;6198549;22;20153;-86
2024/02/28 07:02:55;;;;;;;2.38;1.52;;;17.30;68.40;;;;;;6227587;22;20139;-87
2024/02/28 07:05:29;;;;;;;2.00;1.63;;;17.30;68.30;;;;;;6226172;22;20149;-87
2024/02/28 07:08:13;;;;;;;1.90;1.70;;;17.30;68.10;;;;;;6155951;23;20155;-86
2024/02/28 07:11:05;;;;;;;1.75;1.65;;;17.30;67.60;;;;;;6158093;23;20183;-87
2024/02/28 07:13:46;;;;;;;2.55;1.90;;;17.30;67.60;;;;;;6133365;23;20163;-86
2024/02/28 07:16:23;;;;;;;2.08;1.83;;;17.30;67.80;;;;;;6157836;23;20174;-87
2024/02/28 07:18:56;;;;;;;1.90;1.70;;;17.30;67.90;;;;;;6136425;23;20282;-88
2024/02/28 07:21:26;;;;;;;1.70;1.60;;;17.30;67.60;;;;;;6136954;23;20425;-87
2024/02/28 07:24:11;;;;;;;2.35;1.83;;;17.40;67.40;;;;;;6089287;23;20595;-86
2024/02/28 07:26:40;;;;;;;1.90;1.63;;;17.40;67.20;;;;;;6080483;23;20157;-87
2024/02/28 07:29:09;;;;;;;1.60;1.50;;;17.40;67.10;;;;;;6078678;23;20216;-88
2024/02/28 07:31:45;;;;;;;2.03;1.80;;;17.40;67.00;;;;;;6080163;23;20655;-87
2024/02/28 07:35:13;;;;;;;2.05;1.58;;;17.40;66.20;;;;;;6048195;23;20165;-86
2024/02/28 07:37:20;;;;;;;1.95;1.60;;;17.40;66.90;;;;;;6043390;23;20154;-86
2024/02/28 07:39:57;;;;;;;2.30;1.85;;;17.30;67.20;;;;;;6047828;23;20185;-85
2024/02/28 07:42:26;;;;;;;2.08;1.70;;;17.40;67.00;;;;;;6000608;23;20164;-87
2024/02/28 07:44:58;;;;;;;2.53;1.67;;;17.40;67.10;;;;;;6049943;23;20186;-88
2024/02/28 07:47:34;;;;;;;2.30;1.83;;;17.40;66.70;;;;;;5978799;24;20224;-89
2024/02/28 07:50:21;;;;;;;2.28;1.50;;;17.40;67.40;;;;;;5969155;23;20229;-88
2024/02/28 07:53:02;;;;;;;2.03;1.70;;;17.40;66.50;;;;;;6048181;23;20165;-88
2024/02/28 07:55:56;;;;;;;1.95;1.60;;;17.40;67.00;;;;;;5962281;24;20164;-87
2024/02/28 07:58:31;;;;;;;2.28;1.48;;;17.40;66.40;;;;;;5928914;24;20181;-88
2024/02/28 08:01:08;;;;;;;1.92;1.60;;;17.40;66.40;;;;;;5962874;24;20156;-88
2024/02/28 08:03:35;;;;;;;1.80;1.58;;;17.40;66.80;;;;;;5963504;24;20191;-87
2024/02/28 08:06:37;;;;;;;1.88;1.58;;;17.40;67.50;;;;;;5988731;24;20186;-87
2024/02/28 08:09:15;;;;;;;2.92;1.67;;;17.40;67.00;;;;;;5989580;24;20370;-87
2024/02/28 08:11:49;;;;;;;1.75;1.52;;;17.40;66.80;;;;;;5963450;24;20199;-88
2024/02/28 08:14:15;;;;;;;1.88;1.65;;;17.40;66.00;;;;;;5906070;24;20165;-88
2024/02/28 08:16:48;;;;;;;1.40;1.30;;;17.40;66.90;;;;;;5905774;24;20156;-89
2024/02/28 08:19:17;;;;;;;1.60;1.48;;;17.40;67.30;;;;;;5934137;24;20152;-89
2024/02/28 08:22:06;;;;;;;1.88;1.63;;;17.30;67.30;;;;;;5957261;24;20256;-88
2024/02/28 08:24:37;;;;;;;1.77;1.40;;;17.40;67.40;;;;;;5999911;23;20158;-90
2024/02/28 08:27:16;;;;;;;3.47;1.60;;;17.30;67.00;;;;;;5992388;23;20249;-89
2024/02/28 08:29:48;;;;;;;1.65;1.55;;;17.40;66.10;;;;;;5992021;23;20598;-86
2024/02/28 08:32:20;;;;;;;1.98;1.60;;;17.40;66.70;;;;;;5994730;23;20216;-87
2024/02/28 08:34:49;;;;;;;2.10;1.75;;;17.40;66.40;;;;;;6016558;23;20301;-87
2024/02/28 08:37:15;;;;;;;1.60;1.30;;;17.40;66.90;;;;;;5968070;23;20161;-86
2024/02/28 08:39:40;;;;;;;1.85;1.60;;;17.40;67.10;;;;;;6016686;23;20161;-87
2024/02/28 08:42:10;;;;;;;1.67;1.52;;;17.40;66.80;;;;;;6070955;23;20647;-88
2024/02/28 08:44:37;;;;;;;2.90;1.40;;;17.40;65.80;;;;;;6080649;23;20153;-87
2024/02/28 08:47:09;;;;;;;3.10;1.65;;;17.40;66.50;;;;;;6222252;23;20463;-86
2024/02/28 08:49:35;;;;;;;1.80;1.70;;;17.50;66.90;;;;;;6197945;23;20156;-88
2024/02/28 08:52:01;;;;;;;2.97;1.55;;;17.50;66.40;;;;;;6197914;23;20196;-87
2024/02/28 08:54:27;;;;;;;1.60;1.40;;;17.50;67.00;;;;;;6194910;23;20450;-87
2024/02/28 08:56:56;;;;;;;1.90;1.70;;;17.50;65.40;;;;;;6220886;23;20180;-87
2024/02/28 08:59:26;;;;;;;2.33;1.42;;;17.50;65.80;;;;;;6196114;23;20172;-86
2024/02/28 09:05:13;;;;;;;2.25;1.50;;;17.50;65.60;;;;;;6183707;23;20221;-86
2024/02/28 09:07:50;;;;;;;2.15;1.70;;;17.50;66.30;;;;;;6131283;23;20534;-85
2024/02/28 09:10:21;;;;;;;2.58;1.65;;;17.50;65.50;;;;;;6085161;23;20190;-88
2024/02/28 09:12:50;;;;;;;2.75;1.35;;;17.60;64.70;;;;;;6099105;23;20191;-86
2024/02/28 09:15:16;;;;;;;1.88;1.50;;;17.60;64.50;;;;;;6155462;23;20626;-86
2024/02/28 09:17:43;;;;;;;2.38;1.80;;;17.60;65.10;;;;;;6131130;23;20147;-85
2024/02/28 09:20:15;;;;;;;2.05;1.50;;;17.60;65.50;;;;;;6107851;23;20152;-86
2024/02/28 09:22:43;;;;;;;1.80;1.42;;;17.60;66.20;;;;;;6130633;23;20163;-85
2024/02/28 09:25:11;;;;;;;1.60;1.30;;;17.60;65.60;;;;;;6131043;23;20227;-86
2024/02/28 09:27:37;;;;;;;2.85;1.67;;;17.60;66.00;;;;;;6132000;23;20143;-82
2024/02/28 09:30:10;;;;;;;1.52;1.40;;;17.60;65.90;;;;;;6157569;23;20181;-85
2024/02/28 09:32:39;;;;;;;1.75;1.50;;;17.60;65.70;;;;;;6132302;23;20222;-85
2024/02/28 09:35:11;;;;;;;1.70;1.50;;;17.60;66.10;;;;;;6073676;23;20650;-86
2024/02/28 09:37:38;;;;;;;3.15;1.63;;;17.60;65.70;;;;;;6072961;23;20208;-85
2024/02/28 09:40:09;;;;;;;2.75;1.40;;;17.70;65.00;;;;;;6070460;23;20172;-86
2024/02/28 09:42:35;;;;;;;3.03;1.35;;;17.70;65.80;;;;;;6094906;23;20532;-85
2024/02/28 09:45:01;;;;;;;2.17;1.60;;;17.70;64.60;;;;;;6120137;23;20205;-84
2024/02/28 09:47:27;;;;;;;5.95;1.73;;;17.80;64.00;;;;;;6108732;23;20886;-85
2024/02/28 09:49:52;;;;;;;6.97;1.55;;;17.80;64.50;;;;;;6133666;23;20155;-83
2024/02/28 09:52:19;;;;;;;2.47;1.70;;;17.80;64.30;;;;;;6157687;23;20166;-84
2024/02/28 09:54:45;;;;;;;4.88;1.60;;;17.80;64.90;;;;;;6132465;23;20151;-85
2024/02/28 09:57:11;;;;;;;4.03;1.50;;;17.90;64.80;;;;;;6158487;23;20138;-85
2024/02/28 09:59:37;;;;;;;4.82;1.70;;;17.90;64.30;;;;;;6132992;23;20181;-85
2024/02/28 10:02:04;;;;;;;4.18;1.63;;;17.90;63.80;;;;;;6133770;23;20838;-83
2024/02/28 10:04:30;;;;;;;2.40;1.35;;;17.90;63.60;;;;;;6158138;23;20163;-84
2024/02/28 10:06:56;;;;;;;3.63;1.42;;;18.00;62.70;;;;;;6237745;23;20484;-85
2024/02/28 10:09:22;;;;;;;3.35;1.58;;;18.00;63.40;;;;;;6193998;23;20592;-85
2024/02/28 10:11:49;;;;;;;2.15;1.60;;;18.10;62.40;;;;;;6227823;22;20184;-84
2024/02/28 10:14:19;;;;;;;3.40;1.38;;;18.20;62.40;;;;;;6249734;22;20140;-85
2024/02/28 10:16:45;;;;;;;2.05;1.45;;;18.10;63.10;;;;;;6224020;22;20155;-84
2024/02/28 10:19:12;;;;;;;1.80;1.40;;;18.10;61.90;;;;;;6222556;22;20207;-84
2024/02/28 10:21:40;;;;;;;3.08;1.60;;;18.10;63.40;;;;;;6195683;22;20160;-85
2024/02/28 10:24:17;;;;;;;2.15;1.70;;;18.10;63.60;;;;;;6196424;22;20160;-85
2024/02/28 10:26:56;;;;;;;2.35;1.33;;;18.10;63.60;;;;;;6155651;23;20237;-83
2024/02/28 10:29:32;;;;;;;2.45;1.33;;;18.00;63.60;;;;;;6108351;23;20151;-84
2024/02/28 10:32:25;;;;;;;4.95;1.50;;;18.10;63.40;;;;;;6155550;23;20221;-85
2024/02/28 10:34:51;;;;;;;1.83;1.40;;;18.00;63.70;;;;;;6132065;23;20217;-84
2024/02/28 10:37:17;;;;;;;2.30;1.58;;;18.10;63.40;;;;;;6158070;23;20154;-83
2024/02/28 10:39:43;;;;;;;2.65;1.73;;;18.10;62.00;;;;;;6133453;23;20143;-84
2024/02/28 10:42:10;;;;;;;3.90;1.83;;;18.10;62.40;;;;;;6184994;23;20154;-84
2024/02/28 10:44:39;;;;;;;3.22;1.50;;;18.10;63.50;;;;;;6183944;23;20145;-84
2024/02/28 10:47:07;;;;;;;2.15;1.48;;;18.10;63.20;;;;;;6135933;23;20564;-84
2024/02/28 10:49:32;;;;;;;2.50;1.63;;;18.00;64.30;;;;;;6134695;23;20154;-84
2024/02/28 10:51:58;;;;;;;3.10;1.50;;;18.00;64.10;;;;;;6134419;23;20182;-84
2024/02/28 10:54:29;;;;;;;1.48;1.23;;;18.10;63.00;;;;;;6158399;23;20139;-86
2024/02/28 10:56:55;;;;;;;2.45;1.70;;;18.10;63.40;;;;;;6129470;22;20206;-85
2024/02/28 10:59:23;;;;;;;3.70;1.50;;;18.10;63.20;;;;;;6225241;22;20152;-84
2024/02/28 11:01:49;;;;;;;6.68;1.65;;;18.10;63.80;;;;;;6149221;22;20487;-82
2024/02/28 11:04:17;;;;;;;2.20;1.30;;;18.00;64.00;;;;;;6201891;22;20176;-84
2024/02/28 11:06:52;;;;;;;3.78;1.30;;;18.00;63.40;;;;;;6250226;22;20133;-84
2024/02/28 11:09:22;;;;;;;3.42;1.70;;;17.90;63.60;;;;;;6224822;22;20152;-84
2024/02/28 11:11:50;;;;;;;2.60;1.38;;;18.00;64.30;;;;;;6215757;23;20189;-83
2024/02/28 11:14:17;;;;;;;2.80;1.60;;;18.00;64.10;;;;;;6169548;23;20157;-84
2024/02/28 11:16:46;;;;;;;3.55;1.60;;;18.00;63.50;;;;;;6168769;23;20153;-84
2024/02/28 11:19:23;;;;;;;3.45;1.98;;;18.00;64.50;;;;;;6219148;23;20140;-84
2024/02/28 11:21:55;;;;;;;3.85;1.90;;;18.00;64.20;;;;;;6192445;23;20242;-84
2024/02/28 11:24:30;;;;;;;2.95;1.60;;;18.00;64.10;;;;;;6193779;23;20228;-84
2024/02/28 11:27:02;;;;;;;2.85;1.65;;;18.00;64.00;;;;;;6194947;23;20176;-85
2024/02/28 11:29:29;;;;;;;1.73;1.40;;;18.00;62.90;;;;;;6169596;23;20149;-85
2024/02/28 11:31:55;;;;;;;3.05;1.70;;;18.00;64.00;;;;;;6171623;23;20271;-85
2024/02/28 11:34:21;;;;;;;2.72;1.58;;;18.00;63.20;;;;;;6200453;23;20134;-85
2024/02/28 11:36:49;;;;;;;2.90;1.50;;;18.00;63.90;;;;;;6168676;23;20146;-84
2024/02/28 11:39:16;;;;;;;2.30;1.60;;;18.10;64.20;;;;;;6222846;23;20624;-84
2024/02/28 11:41:46;;;;;;;2.17;1.30;;;18.00;63.70;;;;;;6219333;23;20161;-84
2024/02/28 11:44:15;;;;;;;1.98;1.63;;;18.00;64.00;;;;;;6220575;23;20130;-84
2024/02/28 11:46:49;;;;;;;3.45;1.67;;;18.00;63.60;;;;;;6246469;23;20144;-84
2024/02/28 11:49:15;;;;;;;3.08;1.70;;;18.00;63.80;;;;;;6218436;23;20137;-85
2024/02/28 11:51:42;;;;;;;3.92;1.67;;;18.00;64.20;;;;;;6193212;23;20301;-85
2024/02/28 11:54:10;;;;;;;1.58;1.48;;;18.00;63.60;;;;;;6169568;23;20146;-84
2024/02/28 11:56:38;;;;;;;3.72;1.88;;;18.00;64.70;;;;;;6196939;23;20212;-84
2024/02/28 11:59:05;;;;;;;1.65;1.25;;;18.00;64.10;;;;;;6195109;23;20145;-84
2024/02/28 12:01:44;;;;;;;3.20;1.48;;;17.90;64.00;;;;;;6193842;23;20264;-84
2024/02/28 12:04:13;;;;;;;2.78;1.42;;;17.90;65.20;;;;;;6170580;23;20149;-85
2024/02/28 12:06:39;;;;;;;3.22;1.42;;;17.90;64.80;;;;;;6170706;23;20149;-84
2024/02/28 12:09:08;;;;;;;1.73;1.40;;;18.00;64.20;;;;;;6170351;23;20149;-85
2024/02/28 12:11:34;;;;;;;2.28;1.52;;;17.90;64.70;;;;;;6195638;23;20263;-85
2024/02/28 12:14:03;;;;;;;1.85;1.50;;;17.90;65.10;;;;;;6219062;23;20188;-84
2024/02/28 12:16:31;;;;;;;2.55;1.35;;;17.90;65.20;;;;;;6219407;23;20149;-84
2024/02/28 12:18:56;;;;;;;2.40;1.67;;;17.90;64.70;;;;;;6219611;23;20153;-84
2024/02/28 12:21:23;;;;;;;3.45;1.30;;;17.90;64.30;;;;;;6219739;23;20157;-85
2024/02/28 12:23:49;;;;;;;2.13;1.63;;;17.90;64.70;;;;;;6219075;23;20236;-84
2024/02/28 12:26:17;;;;;;;2.30;1.60;;;17.90;64.70;;;;;;6244815;23;20279;-84
2024/02/28 12:28:43;;;;;;;2.17;1.60;;;17.90;64.50;;;;;;6243331;23;20136;-83
2024/02/28 12:31:11;;;;;;;2.40;1.35;;;17.90;64.00;;;;;;6216657;23;20204;-84
2024/02/28 12:33:39;;;;;;;3.75;1.40;;;17.90;64.40;;;;;;6218564;23;20176;-82
2024/02/28 12:36:07;;;;;;;2.05;1.50;;;17.90;65.00;;;;;;6143069;23;20176;-84
2024/02/28 12:38:32;;;;;;;4.15;1.60;;;17.90;64.80;;;;;;6245240;23;20133;-84
2024/02/28 12:41:01;;;;;;;5.60;1.90;;;17.80;65.80;;;;;;6243437;23;20142;-84
2024/02/28 12:43:27;;;;;;;13.48;2.20;;;17.90;64.90;;;;;;6191397;23;20164;-83
2024/02/28 12:45:53;;;;;;;18.05;2.88;;;17.90;64.90;;;;;;6243741;23;20134;-85
2024/02/28 12:48:19;;;;;;;16.52;2.45;;;17.90;64.40;;;;;;6243712;23;20141;-84
2024/02/28 12:50:45;;;;;;;19.50;2.60;;;17.90;65.00;;;;;;6218117;23;20639;-85
2024/02/28 12:53:10;;;;;;;12.02;1.77;;;17.90;64.90;;;;;;6242749;23;20125;-88
2024/02/28 12:55:36;;;;;;;8.60;2.33;;;17.90;64.90;;;;;;6243477;23;20136;-85